Ana Sayfa
METAR-TAF:

METAR-TAF

Havaalanları :

Jim Hogg County Airport

Hebbronville, Teksas, Amerika Birleşik Devletleri

Enlem: 27-20N, Boylam: 098-44W, yükseklik: 202 m

Güncel hava durumu gözlemi

Rapor saat 05:55 UTC de 10 dakika önce yapıldı.
Rüzgar güney/güneydoğudan 4 kt
Sıcaklık 26°C
Nem 79%
Basınç 1014 hPa
Görüş mesafesi: 16.1 km
Açık gökyüzü

METAR: KHBV 220555Z AUTO 16004KT 10SM CLR 26/22 A2994 RMK AO2 T02630215 10410 20157 404100157

Saat: 01:05 (06:05 UTC)


TAF: eksik

4.000'den fazla havaalanı için hava durumu gözlemleri ve tahminleri (METAR ve TAF raporları).

Kullanılabilir istasyonlar harita üzerinde sarı ve kırmızı noktalarla gösterilir.

İstasyonun adını görmek için fareyi noktanın üzerinde gezdirin.

Sonrasında hava gözlem ve tahminlerini görmek için tıklayın.

Haritayı değiştirmek için: yaklaştırmak için siyah artı işaretli yeşil düğmeye ve uzaklaştırmak için de eksi işaretli düğmeye hızla tıklayın; bitişik haritalar için yeşil okları kullanın.


METAR-TAF: